createdAt,value
2023-02-04T00:02:40.003Z,1.38
2023-02-04T00:07:41.633Z,2.33
2023-02-04T00:12:42.958Z,1.80
2023-02-04T00:17:44.276Z,2.03
2023-02-04T00:22:45.754Z,1.88
2023-02-04T00:27:47.136Z,1.33
2023-02-04T00:32:48.547Z,1.33
2023-02-04T00:37:50.626Z,1.30
2023-02-04T00:42:52.340Z,0.95
2023-02-04T00:47:53.696Z,1.63
2023-02-04T00:52:55.052Z,1.55
2023-02-04T00:57:56.381Z,1.00
2023-02-04T01:02:57.706Z,1.02
2023-02-04T01:07:59.055Z,1.38
2023-02-04T01:13:00.802Z,1.02
2023-02-04T01:18:02.541Z,1.00
2023-02-04T01:23:03.853Z,1.67
2023-02-04T01:28:05.193Z,1.20
2023-02-04T01:33:06.556Z,1.73
2023-02-04T01:38:07.903Z,1.00
2023-02-04T01:43:10.980Z,2.03
2023-02-04T01:48:14.081Z,1.20
2023-02-04T01:53:20.447Z,1.02
2023-02-04T01:58:21.774Z,2.97
2023-02-04T02:03:23.253Z,1.05
2023-02-04T02:08:24.621Z,2.58
2023-02-04T02:13:25.957Z,1.27
2023-02-04T02:18:27.353Z,1.08
2023-02-04T02:23:48.014Z,1.23
2023-02-04T02:28:50.513Z,1.30
2023-02-04T02:33:52.020Z,1.17
2023-02-04T02:38:53.557Z,1.00
2023-02-04T02:43:54.920Z,1.08
2023-02-04T02:48:56.374Z,1.00
2023-02-04T02:53:58.199Z,2.33
2023-02-04T02:59:13.174Z,0.70
2023-02-04T03:04:16.986Z,1.13
2023-02-04T03:09:19.004Z,1.50
2023-02-04T03:14:22.310Z,0.93
2023-02-04T03:19:25.934Z,1.45
2023-02-04T03:24:27.282Z,1.52
2023-02-04T03:29:29.849Z,1.92
2023-02-04T03:34:31.308Z,1.27
2023-02-04T03:39:32.640Z,1.63
2023-02-04T03:44:34.015Z,2.53
2023-02-04T03:49:36.071Z,1.40
2023-02-04T03:54:37.418Z,1.40
2023-02-04T03:59:39.042Z,1.77
2023-02-04T04:04:40.429Z,1.10
2023-02-04T04:09:41.779Z,1.67
2023-02-04T04:14:43.093Z,1.65
2023-02-04T04:19:46.497Z,1.17
2023-02-04T04:24:47.863Z,2.03
2023-02-04T04:29:49.167Z,1.33
2023-02-04T04:34:50.537Z,3.00
2023-02-04T04:39:51.877Z,2.55
2023-02-04T04:44:53.189Z,1.40
2023-02-04T04:49:54.516Z,1.55
2023-02-04T04:54:55.869Z,2.17
2023-02-04T04:59:57.338Z,2.05
2023-02-04T05:04:58.706Z,2.13
2023-02-04T05:10:00.169Z,2.53
2023-02-04T05:15:01.586Z,3.20
2023-02-04T05:20:03.897Z,1.90
2023-02-04T05:25:05.578Z,1.17
2023-02-04T05:30:07.362Z,1.33
2023-02-04T05:35:08.752Z,1.90
2023-02-04T05:40:10.533Z,1.13
2023-02-04T05:45:15.837Z,2.08
2023-02-04T05:50:17.303Z,2.42
2023-02-04T05:55:18.642Z,2.17
2023-02-04T06:00:20.353Z,2.47
2023-02-04T06:05:23.022Z,2.15
2023-02-04T06:10:24.366Z,2.42
2023-02-04T06:15:25.715Z,1.63
2023-02-04T06:20:27.112Z,1.67
2023-02-04T06:25:28.474Z,3.25
2023-02-04T06:30:30.042Z,2.97
2023-02-04T06:35:31.665Z,2.72
2023-02-04T06:40:33.273Z,3.15
2023-02-04T06:45:35.816Z,2.97
2023-02-04T06:50:37.199Z,2.60
2023-02-04T06:55:38.905Z,2.55
2023-02-04T07:00:40.237Z,2.10
2023-02-04T07:05:41.562Z,3.33
2023-02-04T07:10:42.873Z,1.80
2023-02-04T07:15:44.233Z,2.97
2023-02-04T07:20:46.066Z,2.63
2023-02-04T07:25:47.393Z,2.83
2023-02-04T07:30:48.872Z,3.88
2023-02-04T07:35:50.297Z,3.20
2023-02-04T07:40:51.687Z,4.22
2023-02-04T07:45:53.433Z,2.88
2023-02-04T07:50:54.756Z,3.20
2023-02-04T07:55:56.106Z,5.22
2023-02-04T08:00:57.437Z,4.72
2023-02-04T08:05:58.751Z,2.67
2023-02-04T08:11:00.348Z,1.95
2023-02-04T08:16:01.840Z,2.22
2023-02-04T08:21:04.821Z,3.35
2023-02-04T08:26:06.360Z,2.88
2023-02-04T08:31:11.797Z,4.05
2023-02-04T08:36:13.242Z,3.83
2023-02-04T08:41:14.584Z,3.50
2023-02-04T08:46:16.060Z,2.95
2023-02-04T08:51:17.498Z,2.92
2023-02-04T08:56:20.419Z,3.63
2023-02-04T09:01:21.918Z,2.17
2023-02-04T09:06:23.326Z,2.72
2023-02-04T09:11:24.686Z,3.13
2023-02-04T09:16:26.045Z,3.15
2023-02-04T09:21:27.686Z,2.20
2023-02-04T09:26:29.036Z,2.33
2023-02-04T09:31:30.658Z,1.50
2023-02-04T09:36:37.693Z,2.25
2023-02-04T09:41:40.532Z,2.33
2023-02-04T09:46:46.904Z,3.67
2023-02-04T09:51:49.801Z,2.22
2023-02-04T09:56:52.447Z,2.00
2023-02-04T10:02:02.673Z,1.55
2023-02-04T10:07:11.928Z,1.50
2023-02-04T10:12:13.358Z,2.03
2023-02-04T10:17:20.292Z,0.93
2023-02-04T10:22:22.365Z,1.63
2023-02-04T10:27:23.701Z,2.17
2023-02-04T10:32:31.457Z,1.38
2023-02-04T10:37:32.964Z,1.55
2023-02-04T10:42:34.351Z,1.08
2023-02-04T10:47:35.895Z,0.82
2023-02-04T10:52:41.086Z,0.70
2023-02-04T10:57:45.614Z,1.10
2023-02-04T11:03:03.618Z,0.95
2023-02-04T11:08:25.307Z,0.90
2023-02-04T11:13:39.285Z,0.65
2023-02-04T11:18:48.815Z,1.48
2023-02-04T11:23:50.532Z,0.73
2023-02-04T11:29:00.762Z,1.40
2023-02-04T11:34:11.373Z,0.70
2023-02-04T11:39:16.925Z,0.82
2023-02-04T11:44:19.049Z,0.70
2023-02-04T11:49:21.099Z,1.58
2023-02-04T11:54:23.510Z,0.50
2023-02-04T11:59:24.930Z,1.10
2023-02-04T12:04:26.312Z,1.08
2023-02-04T12:09:30.099Z,0.75
2023-02-04T12:14:41.696Z,0.50
2023-02-04T12:19:43.140Z,1.13
2023-02-04T12:24:44.973Z,1.23
2023-02-04T12:29:46.473Z,0.60
2023-02-04T12:34:47.797Z,0.80
2023-02-04T12:39:49.130Z,1.02
2023-02-04T12:44:50.453Z,1.02
2023-02-04T12:49:51.787Z,0.70
2023-02-04T12:54:53.171Z,1.38
2023-02-04T12:59:57.694Z,1.35
2023-02-04T13:04:58.992Z,0.73
2023-02-04T13:10:00.940Z,1.15
2023-02-04T13:15:03.133Z,1.00
2023-02-04T13:20:05.688Z,1.98
2023-02-04T13:25:07.352Z,0.88
2023-02-04T13:30:10.847Z,0.82
2023-02-04T13:35:12.191Z,0.70
2023-02-04T13:40:13.690Z,1.05
2023-02-04T13:45:16.186Z,0.90
2023-02-04T13:50:17.773Z,1.30
2023-02-04T13:55:19.114Z,2.65
2023-02-04T14:00:20.615Z,0.82
2023-02-04T14:05:22.033Z,1.05
2023-02-04T14:10:24.914Z,1.17
2023-02-04T14:15:26.318Z,0.50
2023-02-04T14:20:27.643Z,0.55
2023-02-04T14:25:29.007Z,1.10
2023-02-04T14:30:31.773Z,1.10
2023-02-04T14:35:33.454Z,0.77
2023-02-04T14:40:35.072Z,1.15
2023-02-04T14:45:37.827Z,1.63
2023-02-04T14:50:39.186Z,0.85
2023-02-04T14:55:40.528Z,0.80
2023-02-04T15:00:41.854Z,1.20
2023-02-04T15:05:43.231Z,1.65
2023-02-04T15:10:44.636Z,0.88
2023-02-04T15:15:46.133Z,1.90
2023-02-04T15:20:47.855Z,1.13
2023-02-04T15:25:51.472Z,0.88
2023-02-04T15:30:53.374Z,0.98
2023-02-04T15:35:54.753Z,1.17
2023-02-04T15:40:56.081Z,1.58
2023-02-04T15:45:57.943Z,2.35
2023-02-04T15:50:59.322Z,2.55
2023-02-04T15:56:01.083Z,1.35
2023-02-04T16:01:02.505Z,1.92
2023-02-04T16:06:05.114Z,1.55
2023-02-04T16:11:06.463Z,1.05
2023-02-04T16:16:08.188Z,3.30
2023-02-04T16:21:09.566Z,1.42
2023-02-04T16:26:11.016Z,1.45
2023-02-04T16:31:12.794Z,1.67
2023-02-04T16:36:14.253Z,1.40
2023-02-04T16:41:15.615Z,1.80
2023-02-04T16:46:17.887Z,1.30
2023-02-04T16:51:20.344Z,1.27
2023-02-04T16:56:21.763Z,2.22
2023-02-04T17:01:23.147Z,0.63
2023-02-04T17:06:26.762Z,1.75
2023-02-04T17:11:31.511Z,1.60
2023-02-04T17:16:33.184Z,1.90
2023-02-04T17:21:35.044Z,2.33
2023-02-04T17:26:39.306Z,1.90
2023-02-04T17:31:43.107Z,1.50
2023-02-04T17:36:44.478Z,1.67
2023-02-04T17:41:45.875Z,1.23
2023-02-04T17:46:47.244Z,1.13
2023-02-04T17:51:48.638Z,1.60
2023-02-04T17:56:50.170Z,0.60
2023-02-04T18:01:51.643Z,1.17
2023-02-04T18:06:53.259Z,1.00
2023-02-04T18:11:54.579Z,0.98
2023-02-04T18:16:58.560Z,1.90
2023-02-04T18:21:59.956Z,2.05
2023-02-04T18:27:11.441Z,3.20
2023-02-04T18:32:20.862Z,4.15
2023-02-04T18:37:35.514Z,2.10
2023-02-04T18:42:43.086Z,1.50
2023-02-04T18:47:45.730Z,1.45
2023-02-04T18:52:47.040Z,1.75
2023-02-04T18:57:48.410Z,2.55
2023-02-04T19:02:56.241Z,7.65
2023-02-04T19:08:43.788Z,8.02
2023-02-04T19:13:45.239Z,8.63
2023-02-04T19:18:47.223Z,2.00
2023-02-04T19:23:50.168Z,3.03
2023-02-04T19:28:52.278Z,2.42
2023-02-04T19:33:55.280Z,3.00
2023-02-04T19:39:00.563Z,5.97
2023-02-04T19:44:14.178Z,7.00
2023-02-04T19:49:25.772Z,3.92
2023-02-04T19:54:39.483Z,5.55
2023-02-04T19:59:41.037Z,3.10
2023-02-04T20:04:45.485Z,1.80
2023-02-04T20:09:46.970Z,2.50
2023-02-04T20:14:49.927Z,2.35
2023-02-04T20:19:51.477Z,2.90
2023-02-04T20:25:18.852Z,1.60
2023-02-04T20:30:25.417Z,1.70
2023-02-04T20:35:31.827Z,3.10
2023-02-04T20:40:36.199Z,2.20
2023-02-04T20:45:44.350Z,2.17
2023-02-04T20:50:51.915Z,2.63
2023-02-04T20:56:03.613Z,2.38
2023-02-04T21:01:27.664Z,2.80
2023-02-04T21:06:31.890Z,2.72
2023-02-04T21:11:33.370Z,2.35
2023-02-04T21:16:34.828Z,3.22
2023-02-04T21:21:36.290Z,2.97
2023-02-04T21:26:37.723Z,2.70
2023-02-04T21:31:39.489Z,2.33
2023-02-04T21:36:41.004Z,1.98
2023-02-04T21:41:42.350Z,2.53
2023-02-04T21:46:43.699Z,3.83
2023-02-04T21:51:45.046Z,2.80
2023-02-04T21:56:46.348Z,2.47
2023-02-04T22:01:47.701Z,2.58
2023-02-04T22:06:49.059Z,1.70
2023-02-04T22:11:50.394Z,2.33
2023-02-04T22:16:51.732Z,2.70
2023-02-04T22:21:53.031Z,2.22
2023-02-04T22:26:54.356Z,2.42
2023-02-04T22:31:56.217Z,2.22
2023-02-04T22:36:57.720Z,2.83
2023-02-04T22:41:59.042Z,3.20
2023-02-04T22:47:00.388Z,2.65
2023-02-04T22:52:03.090Z,3.25
2023-02-04T22:57:04.457Z,4.10
2023-02-04T23:02:05.834Z,3.65
2023-02-04T23:07:08.355Z,3.85
2023-02-04T23:12:12.787Z,3.65
2023-02-04T23:17:15.833Z,3.10
2023-02-04T23:22:17.283Z,2.90
2023-02-04T23:27:18.772Z,1.88
2023-02-04T23:32:20.129Z,2.72
2023-02-04T23:37:21.553Z,3.20
2023-02-04T23:42:22.903Z,4.10
2023-02-04T23:47:25.281Z,2.67
2023-02-04T23:52:26.628Z,4.10
2023-02-04T23:57:27.954Z,4.82
